Time;durP1;ratioP1;P1;durP2;ratioP2;P2;SDS_P1;SDS_P2;PMS_P1;PMS_P2;Temp;Humidity;BMP_temperature;BMP_pressure;BME280_temperature;BME280_humidity;BME280_pressure;Samples;Min_cycle;Max_cycle;Signal;HPM_P1;HPM_P2
2023/07/19 00:00:36;;;;;;;3.53;2.00;;;;;;;16.12;100.00;101298.34;5007565;28;20033;-61
2023/07/19 00:03:01;;;;;;;4.50;2.35;;;;;;;16.08;100.00;101300.88;5008426;28;20505;-62
2023/07/19 00:05:27;;;;;;;4.80;2.28;;;;;;;16.02;100.00;101295.56;5008215;28;20017;-62
2023/07/19 00:07:52;;;;;;;3.25;2.08;;;;;;;15.97;100.00;101286.72;5008369;28;20049;-62
2023/07/19 00:10:17;;;;;;;7.82;2.25;;;;;;;15.92;100.00;101291.00;5008561;28;20029;-61
2023/07/19 00:12:43;;;;;;;4.68;2.35;;;;;;;15.88;100.00;101282.22;5008289;28;20034;-62
2023/07/19 00:15:08;;;;;;;3.05;2.45;;;;;;;15.83;100.00;101289.97;5010781;28;20040;-61
2023/07/19 00:17:33;;;;;;;5.50;2.53;;;;;;;15.77;100.00;101289.88;5011327;28;20057;-63
2023/07/19 00:19:59;;;;;;;3.35;2.33;;;;;;;15.72;100.00;101291.53;5014644;28;20080;-61
2023/07/19 00:22:24;;;;;;;4.43;2.08;;;;;;;15.68;100.00;101292.31;5011148;28;20462;-63
2023/07/19 00:24:50;;;;;;;4.50;2.70;;;;;;;15.64;100.00;101277.44;5011593;28;20033;-62
2023/07/19 00:27:15;;;;;;;5.35;3.42;;;;;;;15.61;100.00;101278.28;4999842;28;20789;-61
2023/07/19 00:29:40;;;;;;;4.55;2.75;;;;;;;15.60;100.00;101263.44;5011074;28;20029;-63
2023/07/19 00:32:06;;;;;;;3.88;2.65;;;;;;;15.57;100.00;101272.13;5010916;28;20037;-63
2023/07/19 00:34:32;;;;;;;4.90;3.42;;;;;;;15.55;100.00;101265.97;5010711;28;20014;-61
2023/07/19 00:36:57;;;;;;;4.57;2.80;;;;;;;15.53;100.00;101265.06;5010823;28;20029;-62
2023/07/19 00:39:22;;;;;;;4.68;2.47;;;;;;;15.53;100.00;101259.84;5010854;28;20513;-62
2023/07/19 00:41:48;;;;;;;3.55;2.40;;;;;;;15.52;100.00;101252.00;5011247;28;20092;-61
2023/07/19 00:44:13;;;;;;;3.05;2.65;;;;;;;15.53;100.00;101248.50;5011263;28;20035;-61
2023/07/19 00:46:39;;;;;;;3.40;2.83;;;;;;;15.53;100.00;101244.19;5012751;28;20028;-61
2023/07/19 00:49:05;;;;;;;3.45;2.35;;;;;;;15.54;100.00;101243.31;5011635;28;20063;-61
2023/07/19 00:51:31;;;;;;;3.60;2.35;;;;;;;15.54;100.00;101238.09;5011250;28;20121;-61
2023/07/19 00:53:56;;;;;;;3.30;2.42;;;;;;;15.55;100.00;101226.81;5010513;28;20460;-61
2023/07/19 00:56:23;;;;;;;3.85;2.50;;;;;;;15.54;100.00;101230.25;5011143;28;20030;-63
2023/07/19 00:58:52;;;;;;;3.95;2.38;;;;;;;15.51;100.00;101227.59;5010900;28;20017;-62
2023/07/19 01:01:19;;;;;;;6.30;2.75;;;;;;;15.48;100.00;101230.16;5010788;28;20037;-62
2023/07/19 01:03:45;;;;;;;3.90;2.53;;;;;;;15.45;100.00;101241.41;5016624;28;20518;-62
2023/07/19 01:06:11;;;;;;;2.50;2.00;;;;;;;15.42;100.00;101245.69;5018408;28;20033;-62
2023/07/19 01:08:36;;;;;;;4.78;2.28;;;;;;;15.38;100.00;101241.31;5010849;28;20597;-61
2023/07/19 01:11:02;;;;;;;3.72;2.05;;;;;;;15.36;100.00;101242.13;5011050;28;20029;-61
2023/07/19 01:13:27;;;;;;;5.97;2.00;;;;;;;15.35;100.00;101234.28;5010405;28;20431;-61
2023/07/19 01:15:53;;;;;;;3.00;1.88;;;;;;;15.36;100.00;101234.28;5010696;28;20068;-62
2023/07/19 01:18:19;;;;;;;3.72;1.83;;;;;;;15.36;100.00;101233.44;5010340;28;20022;-61
2023/07/19 01:20:45;;;;;;;4.10;1.80;;;;;;;15.32;100.00;101237.72;5010481;28;20021;-61
2023/07/19 01:23:11;;;;;;;4.35;2.10;;;;;;;15.29;100.00;101229.81;5010345;28;20026;-61
2023/07/19 01:25:37;;;;;;;2.50;1.90;;;;;;;15.25;100.00;101228.03;5010006;28;20025;-62
2023/07/19 01:28:02;;;;;;;3.65;1.63;;;;;;;15.20;100.00;101227.06;5010331;28;20040;-61
2023/07/19 01:30:28;;;;;;;2.78;1.60;;;;;;;15.18;100.00;101220.91;5011192;28;20030;-61
2023/07/19 01:32:53;;;;;;;3.75;1.95;;;;;;;15.16;100.00;101218.28;4997781;28;20520;-62
2023/07/19 01:35:19;;;;;;;4.80;2.38;;;;;;;15.16;100.00;101213.06;5010738;28;20022;-61
2023/07/19 01:37:45;;;;;;;4.60;2.28;;;;;;;15.15;100.00;101210.44;5003735;28;20030;-61
2023/07/19 01:40:11;;;;;;;3.92;1.73;;;;;;;15.13;100.00;101212.97;5003448;28;20068;-61
2023/07/19 01:42:37;;;;;;;3.28;2.28;;;;;;;15.13;100.00;101206.03;5009967;28;20061;-61
2023/07/19 01:45:03;;;;;;;4.55;2.42;;;;;;;15.12;100.00;101206.91;5009686;28;20045;-63
2023/07/19 01:47:28;;;;;;;2.53;2.10;;;;;;;15.09;100.00;101209.44;5009958;28;20038;-62
2023/07/19 01:49:54;;;;;;;5.80;2.40;;;;;;;15.09;100.00;101200.75;5010097;28;20025;-61
2023/07/19 01:52:19;;;;;;;5.00;2.13;;;;;;;15.08;100.00;101205.06;5009891;28;20045;-63
2023/07/19 01:54:45;;;;;;;2.13;1.92;;;;;;;15.09;100.00;101204.22;5010298;28;20080;-61
2023/07/19 01:57:11;;;;;;;3.72;2.40;;;;;;;15.08;100.00;101206.81;5012178;28;20025;-62
2023/07/19 01:59:37;;;;;;;4.38;2.83;;;;;;;15.04;100.00;101208.47;5018250;28;20033;-62
2023/07/19 02:02:03;;;;;;;4.13;2.65;;;;;;;15.06;100.00;101201.56;5009639;28;20054;-61
2023/07/19 02:04:29;;;;;;;4.40;2.42;;;;;;;15.07;100.00;101208.56;5010229;28;20029;-62
2023/07/19 02:06:55;;;;;;;5.03;2.78;;;;;;;15.10;100.00;101211.22;5009828;28;20108;-61
2023/07/19 02:09:20;;;;;;;3.28;1.92;;;;;;;15.15;100.00;101211.28;5009952;28;20561;-62
2023/07/19 02:11:46;;;;;;;4.10;2.67;;;;;;;15.17;100.00;101203.47;5009523;28;20030;-62
2023/07/19 02:14:11;;;;;;;5.55;3.53;;;;;;;15.13;100.00;101202.53;5009896;28;20021;-60
2023/07/19 02:16:37;;;;;;;3.80;2.88;;;;;;;15.07;100.00;101198.13;5008777;28;20029;-61
2023/07/19 02:19:06;;;;;;;3.13;2.60;;;;;;;15.03;100.00;101201.50;5005505;28;20028;-61
2023/07/19 02:21:32;;;;;;;4.60;3.22;;;;;;;15.02;100.00;101198.88;4996610;28;20018;-61
2023/07/19 02:23:58;;;;;;;4.80;3.00;;;;;;;14.98;100.00;101187.50;4996192;28;20417;-61
2023/07/19 02:26:24;;;;;;;5.47;3.88;;;;;;;14.95;100.00;101182.22;5005425;28;20560;-61
2023/07/19 02:28:50;;;;;;;6.55;4.07;;;;;;;14.92;100.00;101183.03;5000629;28;20034;-62
2023/07/19 02:31:15;;;;;;;5.82;3.10;;;;;;;14.92;100.00;101187.34;5009197;28;20032;-62
2023/07/19 02:33:41;;;;;;;5.38;3.50;;;;;;;14.91;100.00;101191.72;5009312;28;20176;-62
2023/07/19 02:36:06;;;;;;;5.95;3.63;;;;;;;14.91;100.00;101181.28;4995872;28;20034;-62
2023/07/19 02:38:32;;;;;;;4.22;3.13;;;;;;;14.91;100.00;101183.00;5008651;28;20647;-61
2023/07/19 02:40:59;;;;;;;6.18;3.33;;;;;;;14.89;100.00;101178.63;5008815;28;20053;-61
2023/07/19 02:43:25;;;;;;;3.20;2.92;;;;;;;14.86;100.00;101186.38;5009268;28;20029;-61
2023/07/19 02:45:52;;;;;;;6.90;3.30;;;;;;;14.82;100.00;101181.09;4995947;28;20034;-61
2023/07/19 02:48:18;;;;;;;5.20;3.13;;;;;;;14.77;100.00;101187.06;5009008;28;20486;-63
2023/07/19 02:50:47;;;;;;;5.32;3.30;;;;;;;14.77;100.00;101188.78;5009032;28;20037;-62
2023/07/19 02:53:13;;;;;;;6.00;3.45;;;;;;;14.81;100.00;101198.47;4995935;28;20026;-62
2023/07/19 02:55:38;;;;;;;4.10;2.92;;;;;;;14.79;100.00;101189.69;5009159;28;20025;-61
2023/07/19 02:58:03;;;;;;;3.80;2.88;;;;;;;14.78;100.00;101180.13;5008826;28;20473;-62
2023/07/19 03:00:29;;;;;;;4.25;3.35;;;;;;;14.78;100.00;101187.94;5009428;28;20063;-61
2023/07/19 03:02:55;;;;;;;4.38;3.00;;;;;;;14.78;100.00;101190.56;5008833;28;20026;-62
2023/07/19 03:05:21;;;;;;;7.32;2.92;;;;;;;14.79;100.00;101189.69;5009605;28;20049;-62
2023/07/19 03:07:46;;;;;;;4.95;3.13;;;;;;;14.80;100.00;101188.88;4995998;28;20032;-61
2023/07/19 03:10:12;;;;;;;4.70;3.00;;;;;;;14.79;100.00;101181.88;5009238;28;20037;-62
2023/07/19 03:12:37;;;;;;;4.10;3.28;;;;;;;14.80;100.00;101191.47;5008837;28;20060;-61
2023/07/19 03:15:03;;;;;;;5.40;3.08;;;;;;;14.83;100.00;101196.78;5008784;28;20032;-61
2023/07/19 03:17:28;;;;;;;6.40;3.10;;;;;;;14.86;100.00;101204.66;5009422;28;20101;-62
2023/07/19 03:19:54;;;;;;;8.32;3.35;;;;;;;14.87;100.00;101201.22;5008841;28;20156;-62
2023/07/19 03:22:19;;;;;;;6.82;3.33;;;;;;;14.88;100.00;101202.06;5009312;28;20061;-62
2023/07/19 03:24:45;;;;;;;7.03;3.20;;;;;;;14.87;100.00;101196.00;5008021;28;20105;-61
2023/07/19 03:27:10;;;;;;;4.80;3.17;;;;;;;14.89;100.00;101189.06;4996214;28;20066;-62
2023/07/19 03:29:36;;;;;;;5.35;3.00;;;;;;;14.92;100.00;101197.78;5008321;28;20030;-62
2023/07/19 03:32:02;;;;;;;5.57;3.22;;;;;;;14.95;100.00;101198.72;5008882;28;20068;-62
2023/07/19 03:34:27;;;;;;;6.82;3.90;;;;;;;14.98;100.00;101205.75;4995420;28;20057;-62
2023/07/19 03:36:52;;;;;;;8.13;3.30;;;;;;;14.99;100.00;101200.56;5008444;28;20022;-61
2023/07/19 03:39:18;;;;;;;8.10;3.60;;;;;;;15.03;100.00;101211.94;5001913;28;20105;-61
2023/07/19 03:41:43;;;;;;;9.00;3.55;;;;;;;15.07;100.00;101208.56;5002375;28;20045;-62
2023/07/19 03:44:09;;;;;;;8.63;4.03;;;;;;;15.10;100.00;101208.59;5007880;28;20026;-62
2023/07/19 03:46:34;;;;;;;10.13;3.75;;;;;;;15.12;100.00;101196.47;5007716;28;20034;-63
2023/07/19 03:49:00;;;;;;;7.38;4.03;;;;;;;15.15;100.00;101210.44;5007924;28;20103;-62
2023/07/19 03:51:25;;;;;;;10.75;4.03;;;;;;;15.12;100.00;101209.50;5010517;28;20014;-61
2023/07/19 03:53:51;;;;;;;5.93;4.25;;;;;;;15.12;100.00;101208.63;5011788;28;20033;-62
2023/07/19 03:56:16;;;;;;;8.70;4.35;;;;;;;15.10;100.00;101206.00;5012344;28;20556;-61
2023/07/19 03:58:45;;;;;;;7.25;4.13;;;;;;;15.07;100.00;101208.56;5011963;28;20014;-62
2023/07/19 04:01:10;;;;;;;6.10;4.07;;;;;;;15.09;100.00;101211.19;5012006;28;20466;-62
2023/07/19 04:03:36;;;;;;;7.25;4.40;;;;;;;15.09;100.00;101211.19;5012168;28;20049;-60
2023/07/19 04:06:01;;;;;;;5.50;3.75;;;;;;;15.09;100.00;101214.66;5012499;28;20014;-61
2023/07/19 04:08:27;;;;;;;7.95;3.88;;;;;;;15.11;100.00;101210.34;5012024;28;20026;-61
2023/07/19 04:10:52;;;;;;;8.13;4.53;;;;;;;15.11;100.00;101214.72;5011835;28;20050;-60
2023/07/19 04:13:18;;;;;;;10.50;4.18;;;;;;;15.10;100.00;101203.38;5011778;28;20032;-61
2023/07/19 04:15:43;;;;;;;7.32;4.43;;;;;;;15.08;100.00;101210.28;5012198;28;20030;-61
2023/07/19 04:18:09;;;;;;;6.10;3.85;;;;;;;15.08;100.00;101201.59;5011901;28;20156;-61
2023/07/19 04:20:36;;;;;;;6.63;3.90;;;;;;;15.09;100.00;101201.59;5011996;28;20052;-62
2023/07/19 04:23:03;;;;;;;8.90;4.28;;;;;;;15.11;100.00;101204.28;5011154;28;20026;-61
2023/07/19 04:25:30;;;;;;;6.47;3.80;;;;;;;15.11;100.00;101201.66;5012066;28;20084;-60
2023/07/19 04:27:55;;;;;;;5.55;4.00;;;;;;;15.12;100.00;101200.81;5006871;28;20109;-61
2023/07/19 04:30:20;;;;;;;6.07;4.60;;;;;;;15.12;100.00;101198.19;5005018;28;20480;-62
2023/07/19 04:32:46;;;;;;;8.57;4.70;;;;;;;15.12;100.00;101200.81;5006353;28;20026;-62
2023/07/19 04:35:11;;;;;;;7.05;4.78;;;;;;;15.12;100.00;101201.69;5005096;28;20497;-61
2023/07/19 04:37:40;;;;;;;6.43;4.70;;;;;;;15.16;100.00;101206.97;4998976;28;20014;-61
2023/07/19 04:40:09;;;;;;;6.78;4.30;;;;;;;15.17;100.00;101203.47;5011689;28;20033;-61
2023/07/19 04:42:34;;;;;;;4.75;3.88;;;;;;;15.21;100.00;101213.13;4999248;28;20542;-62
2023/07/19 04:45:00;;;;;;;5.53;4.70;;;;;;;15.25;100.00;101213.22;5011369;28;20120;-61
2023/07/19 04:47:25;;;;;;;6.15;4.38;;;;;;;15.29;100.00;101208.94;4999615;28;20458;-62
2023/07/19 04:49:51;;;;;;;6.25;4.82;;;;;;;15.33;100.00;101210.75;5011016;28;20025;-62
2023/07/19 04:52:16;;;;;;;7.72;4.60;;;;;;;15.35;100.00;101216.88;5011295;28;20030;-61
2023/07/19 04:54:41;;;;;;;5.82;4.38;;;;;;;15.38;100.00;101217.81;5010947;28;20030;-61
2023/07/19 04:57:07;;;;;;;4.97;4.47;;;;;;;15.39;100.00;101214.31;5010697;28;20018;-62
2023/07/19 04:59:32;;;;;;;6.50;4.60;;;;;;;15.38;100.00;101217.81;5010982;28;20030;-61
2023/07/19 05:01:58;;;;;;;7.05;4.55;;;;;;;15.40;100.00;101223.94;5010036;28;20394;-62
2023/07/19 05:04:23;;;;;;;6.45;4.80;;;;;;;15.43;100.00;101222.25;5011245;28;20029;-62
2023/07/19 05:06:49;;;;;;;6.95;4.82;;;;;;;15.47;100.00;101228.41;5010582;28;20347;-63
2023/07/19 05:09:15;;;;;;;7.50;4.90;;;;;;;15.51;100.00;101224.13;5011019;28;20061;-61
2023/07/19 05:11:41;;;;;;;5.82;4.82;;;;;;;15.53;100.00;101222.41;5010834;28;20441;-63
2023/07/19 05:14:06;;;;;;;5.47;4.97;;;;;;;15.57;100.00;101219.00;5010922;28;20030;-61
2023/07/19 05:16:33;;;;;;;6.53;5.00;;;;;;;15.60;100.00;101222.53;5010984;28;20013;-62
2023/07/19 05:18:58;;;;;;;5.55;5.05;;;;;;;15.66;100.00;101223.50;5008043;28;20084;-61
2023/07/19 05:21:24;;;;;;;8.45;5.15;;;;;;;15.72;100.00;101221.00;5010191;28;20038;-61
2023/07/19 05:23:49;;;;;;;5.85;4.68;;;;;;;15.77;100.00;101219.34;5001581;28;20038;-62
2023/07/19 05:26:15;;;;;;;8.18;5.30;;;;;;;15.87;100.00;101216.84;4991385;28;20054;-62
2023/07/19 05:28:40;;;;;;;7.22;5.18;;;;;;;15.91;100.00;101214.34;4999565;28;20491;-61
2023/07/19 05:31:08;;;;;;;7.20;5.15;;;;;;;15.97;100.00;101224.00;4996378;28;20073;-63
2023/07/19 05:33:34;;;;;;;11.82;5.10;;;;;;;16.03;100.00;101218.03;4999165;28;20537;-62
2023/07/19 05:36:00;;;;;;;6.72;4.53;;;;;;;16.09;100.00;101215.50;4992848;28;20022;-61
2023/07/19 05:38:26;;;;;;;11.32;5.30;;;;;;;16.15;100.00;101222.56;5002836;28;20033;-62
2023/07/19 05:40:51;;;;;;;7.32;5.07;;;;;;;16.20;100.00;101218.28;5007056;28;20054;-62
2023/07/19 05:43:17;;;;;;;7.80;5.45;;;;;;;16.27;100.00;101220.13;5007367;28;20026;-63
2023/07/19 05:45:42;;;;;;;8.63;4.88;;;;;;;16.39;100.00;101210.69;5002920;28;20038;-62
2023/07/19 05:48:08;;;;;;;5.97;4.50;;;;;;;16.48;100.00;101208.19;5000596;28;20024;-62
2023/07/19 05:50:33;;;;;;;7.75;5.28;;;;;;;16.56;100.00;101213.53;5005639;28;20022;-61
2023/07/19 05:52:58;;;;;;;6.53;5.13;;;;;;;16.63;100.00;101219.72;4996765;28;20030;-62
2023/07/19 05:55:24;;;;;;;9.95;5.53;;;;;;;16.68;100.00;101218.94;5002543;28;20034;-61
2023/07/19 05:57:49;;;;;;;7.82;5.70;;;;;;;16.74;100.00;101212.91;5004579;28;20025;-62
2023/07/19 06:00:24;;;;;;;7.05;5.68;;;;;;;16.84;100.00;101218.25;4997568;28;20113;-61
2023/07/19 06:02:50;;;;;;;7.70;5.10;;;;;;;16.90;100.00;101224.44;5005430;28;20038;-62
2023/07/19 06:05:16;;;;;;;7.68;6.10;;;;;;;16.97;100.00;101227.97;5002919;28;20029;-63
2023/07/19 06:07:42;;;;;;;7.03;5.45;;;;;;;17.03;100.00;101220.22;5000174;28;20034;-62
2023/07/19 06:10:08;;;;;;;7.70;5.90;;;;;;;17.10;100.00;101226.44;4997039;28;20033;-62
2023/07/19 06:12:33;;;;;;;6.72;4.75;;;;;;;17.17;100.00;101229.97;5007574;28;20034;-62
2023/07/19 06:14:58;;;;;;;6.80;6.13;;;;;;;17.21;100.00;101229.16;4998750;28;20205;-62
2023/07/19 06:17:24;;;;;;;10.13;5.82;;;;;;;17.26;100.00;101227.47;5006882;28;20022;-62
2023/07/19 06:19:50;;;;;;;9.35;5.80;;;;;;;17.33;100.00;101217.91;5001151;28;20026;-62
2023/07/19 06:22:15;;;;;;;6.15;4.53;;;;;;;17.44;100.00;101218.03;5009732;28;20084;-62
2023/07/19 06:24:41;;;;;;;7.05;5.55;;;;;;;17.53;100.00;101212.00;5009316;28;20019;-62
2023/07/19 06:27:06;;;;;;;6.45;5.53;;;;;;;17.73;100.00;101209.56;4997409;28;20026;-61
2023/07/19 06:29:31;;;;;;;8.55;5.03;;;;;;;17.93;100.00;101210.56;5008462;28;20029;-61
2023/07/19 06:31:57;;;;;;;6.63;5.25;;;;;;;18.04;100.00;101211.53;5009480;28;20028;-61
2023/07/19 06:34:22;;;;;;;8.60;4.63;;;;;;;18.22;100.00;101216.00;5008499;28;20032;-61
2023/07/19 06:36:47;;;;;;;6.20;4.95;;;;;;;18.37;100.00;101216.97;5009440;28;20030;-61
2023/07/19 06:39:13;;;;;;;6.93;4.70;;;;;;;18.42;100.00;101217.88;5008522;28;20482;-60
2023/07/19 06:41:38;;;;;;;7.78;4.63;;;;;;;18.42;100.00;101214.41;5007770;28;20054;-61
2023/07/19 06:44:03;;;;;;;6.35;4.13;;;;;;;18.43;100.00;101213.50;5007713;28;20033;-60
2023/07/19 06:46:29;;;;;;;7.93;4.03;;;;;;;18.47;100.00;101216.16;5008214;28;20501;-62
2023/07/19 06:48:54;;;;;;;7.28;4.45;;;;;;;18.57;100.00;101214.47;5007688;28;20092;-60
2023/07/19 06:51:19;;;;;;;5.80;3.95;;;;;;;18.65;100.00;101219.75;5007389;28;20025;-61
2023/07/19 06:53:45;;;;;;;6.72;4.30;;;;;;;18.81;100.00;101217.19;5007839;28;20022;-61
2023/07/19 06:56:10;;;;;;;5.80;4.20;;;;;;;18.96;100.00;101213.72;5008538;28;20434;-61
2023/07/19 06:58:35;;;;;;;6.72;3.60;;;;;;;19.18;100.00;101213.81;5009036;28;20053;-61
2023/07/19 07:01:01;;;;;;;6.82;4.00;;;;;;;19.41;98.47;101219.09;5009036;28;20521;-60
2023/07/19 07:03:26;;;;;;;5.32;4.03;;;;;;;19.59;94.58;101213.88;5008937;28;20037;-60
2023/07/19 07:05:51;;;;;;;7.80;4.57;;;;;;;19.73;92.89;101216.50;5008838;28;20072;-62
2023/07/19 07:08:17;;;;;;;9.50;4.40;;;;;;;19.80;92.43;101220.88;5008767;28;20924;-60
2023/07/19 07:10:42;;;;;;;6.70;3.45;;;;;;;19.87;91.20;101217.34;5009075;28;20524;-61
2023/07/19 07:13:08;;;;;;;6.70;3.42;;;;;;;19.96;91.42;101212.94;5008943;28;20056;-61
2023/07/19 07:15:34;;;;;;;7.10;4.22;;;;;;;20.01;89.82;101216.44;5008926;28;20030;-61
2023/07/19 07:17:59;;;;;;;7.88;3.67;;;;;;;20.16;90.07;101223.47;4995916;28;20045;-61
2023/07/19 07:20:24;;;;;;;6.57;4.00;;;;;;;20.26;88.79;101227.84;5007983;28;20493;-60
2023/07/19 07:22:50;;;;;;;5.40;3.67;;;;;;;20.31;88.97;101225.19;5008735;28;20030;-60
2023/07/19 07:25:16;;;;;;;5.07;3.53;;;;;;;20.28;86.26;101226.09;5004210;28;20013;-61
2023/07/19 07:27:41;;;;;;;6.32;3.20;;;;;;;20.23;86.89;101224.34;4996988;28;20038;-60
2023/07/19 07:30:08;;;;;;;6.70;3.58;;;;;;;20.18;86.83;101218.22;5000353;28;20057;-61
2023/07/19 07:32:34;;;;;;;6.03;3.90;;;;;;;20.09;87.42;101219.13;5006527;28;20038;-61
2023/07/19 07:34:59;;;;;;;7.45;3.40;;;;;;;20.04;89.01;101226.97;5009761;28;20030;-62
2023/07/19 07:37:25;;;;;;;5.50;3.42;;;;;;;19.94;87.93;101217.34;5002033;28;20050;-61
2023/07/19 07:39:50;;;;;;;4.47;3.10;;;;;;;19.89;88.44;101212.97;4991875;28;20169;-60
2023/07/19 07:42:16;;;;;;;6.15;3.25;;;;;;;19.88;89.65;101216.47;5004118;28;20132;-60
2023/07/19 07:44:41;;;;;;;4.35;2.95;;;;;;;19.94;90.71;101204.19;5007284;28;20025;-61
2023/07/19 07:47:07;;;;;;;5.53;3.20;;;;;;;19.98;91.48;101211.22;5006639;28;20041;-60
2023/07/19 07:49:33;;;;;;;4.75;3.60;;;;;;;19.96;89.54;101216.47;4999755;28;20038;-61
2023/07/19 07:51:58;;;;;;;7.53;2.78;;;;;;;20.01;89.25;101211.19;4998593;28;20042;-60
2023/07/19 07:54:23;;;;;;;4.93;2.47;;;;;;;20.08;89.20;101207.72;5000125;28;20061;-60
2023/07/19 07:56:49;;;;;;;5.68;3.03;;;;;;;20.15;90.01;101204.19;4997424;28;20057;-62
2023/07/19 07:59:15;;;;;;;5.70;2.95;;;;;;;20.21;90.23;101208.56;4998784;28;20026;-62
2023/07/19 08:01:41;;;;;;;5.00;3.03;;;;;;;20.24;89.73;101208.53;4994162;28;20067;-60
2023/07/19 08:04:09;;;;;;;3.60;2.35;;;;;;;20.28;87.82;101204.16;4994304;28;20026;-60
2023/07/19 08:06:35;;;;;;;5.10;2.00;;;;;;;20.34;86.82;101206.78;4998865;28;20949;-60
2023/07/19 08:09:01;;;;;;;5.47;1.90;;;;;;;20.67;86.71;101211.91;5008487;28;20105;-62
2023/07/19 08:11:26;;;;;;;6.03;2.88;;;;;;;21.05;82.57;101207.34;4999405;28;20026;-61
2023/07/19 08:13:53;;;;;;;3.30;2.13;;;;;;;21.28;82.19;101201.06;5007947;28;20036;-61
2023/07/19 08:16:18;;;;;;;6.05;2.70;;;;;;;21.25;79.39;101198.44;4998462;28;20501;-60
2023/07/19 08:18:44;;;;;;;5.22;2.33;;;;;;;21.29;81.40;101194.91;5006327;28;20034;-61
2023/07/19 08:21:09;;;;;;;6.60;3.08;;;;;;;21.32;81.83;101186.97;5001165;28;20022;-61
2023/07/19 08:23:34;;;;;;;5.25;1.92;;;;;;;21.49;82.92;101185.97;5004886;28;20034;-61
2023/07/19 08:26:00;;;;;;;4.47;2.15;;;;;;;21.79;80.22;101188.34;5000351;28;20030;-60
2023/07/19 08:28:25;;;;;;;3.35;1.92;;;;;;;22.14;75.38;101195.06;4993841;28;20030;-60
2023/07/19 08:30:52;;;;;;;4.38;2.05;;;;;;;22.41;72.28;101194.75;5008374;28;20033;-60
2023/07/19 08:33:22;;;;;;;4.93;1.83;;;;;;;22.54;70.29;101192.84;5003017;28;20479;-61
2023/07/19 08:35:47;;;;;;;5.10;1.52;;;;;;;22.69;69.66;101190.91;5008638;28;20030;-61
2023/07/19 08:38:14;;;;;;;5.38;1.85;;;;;;;22.73;68.29;101188.22;5003257;28;20038;-61
2023/07/19 08:40:40;;;;;;;4.35;1.65;;;;;;;22.90;69.35;101184.50;5005415;28;20030;-60
2023/07/19 08:43:06;;;;;;;4.28;1.65;;;;;;;22.93;67.13;101195.00;5002460;28;20445;-61
2023/07/19 08:45:35;;;;;;;3.05;1.70;;;;;;;22.86;67.80;101195.97;5007722;28;20026;-61
2023/07/19 08:48:00;;;;;;;2.28;1.67;;;;;;;22.79;66.64;101200.47;5000110;28;20046;-61
2023/07/19 08:50:27;;;;;;;3.22;1.75;;;;;;;22.66;67.95;101200.66;5005577;28;20467;-61
2023/07/19 08:52:53;;;;;;;5.10;2.13;;;;;;;22.45;68.78;101195.59;5000253;28;20042;-60
2023/07/19 08:55:20;;;;;;;3.03;1.63;;;;;;;22.47;72.35;101197.31;5004867;28;20033;-60
2023/07/19 08:57:46;;;;;;;4.38;2.40;;;;;;;22.48;71.40;101200.84;5000986;28;20030;-60
2023/07/19 09:00:15;;;;;;;3.08;1.77;;;;;;;22.54;71.21;101204.25;5002263;28;20817;-61
2023/07/19 09:02:41;;;;;;;3.20;2.07;;;;;;;22.48;69.86;101203.47;5003973;28;20482;-61
2023/07/19 09:05:09;;;;;;;4.43;1.92;;;;;;;22.36;68.97;101215.06;5006142;28;20101;-61
2023/07/19 09:07:34;;;;;;;4.38;2.25;;;;;;;22.14;68.37;101204.75;5004548;28;20030;-61
2023/07/19 09:10:00;;;;;;;3.92;1.70;;;;;;;22.04;69.05;101207.47;5005904;28;20079;-61
2023/07/19 09:12:35;;;;;;;4.25;1.98;;;;;;;22.01;72.17;101204.88;4996473;28;20026;-61
2023/07/19 09:15:00;;;;;;;3.83;1.98;;;;;;;21.97;71.09;101200.50;5003447;28;20033;-61
2023/07/19 09:17:28;;;;;;;5.00;1.83;;;;;;;21.93;73.13;101198.78;5000869;28;20440;-61
2023/07/19 09:19:54;;;;;;;5.13;2.20;;;;;;;21.96;74.94;101209.31;5006006;28;20026;-60
2023/07/19 09:22:19;;;;;;;3.67;2.15;;;;;;;22.05;75.89;101193.41;4988829;28;20030;-60
2023/07/19 09:25:01;;;;;;;9.30;3.03;;;;;;;22.26;74.77;101198.44;4996562;28;20033;-60
2023/07/19 09:27:27;;;;;;;6.32;3.08;;;;;;;22.29;72.90;101193.13;4995236;28;20041;-61
2023/07/19 09:29:53;;;;;;;5.03;3.10;;;;;;;22.30;74.43;101190.50;4999269;28;20037;-61
2023/07/19 09:32:19;;;;;;;4.32;1.92;;;;;;;22.46;76.17;101198.22;5005403;28;20029;-60
2023/07/19 09:34:45;;;;;;;6.90;3.00;;;;;;;22.74;75.89;101197.88;5003855;28;20080;-62
2023/07/19 09:37:10;;;;;;;3.85;2.03;;;;;;;22.91;73.43;101195.03;5007819;28;20030;-60
2023/07/19 09:39:37;;;;;;;6.43;2.33;;;;;;;23.11;75.46;101200.91;5010289;28;20141;-61
2023/07/19 09:42:03;;;;;;;4.68;3.42;;;;;;;23.23;72.91;101198.06;5010349;28;20048;-60
2023/07/19 09:44:29;;;;;;;4.55;2.60;;;;;;;23.23;73.64;101198.06;5009972;28;20014;-60
2023/07/19 09:46:56;;;;;;;4.93;2.00;;;;;;;23.31;75.44;101197.09;5009302;28;20022;-61
2023/07/19 09:49:22;;;;;;;5.63;2.75;;;;;;;23.25;72.87;101193.66;5010454;28;20045;-60
2023/07/19 09:51:48;;;;;;;5.38;2.60;;;;;;;23.15;72.58;101189.41;4996972;28;20065;-62
2023/07/19 09:54:14;;;;;;;4.82;2.40;;;;;;;23.01;72.47;101193.09;5010008;28;20446;-61
2023/07/19 09:56:42;;;;;;;4.30;1.83;;;;;;;23.03;74.08;101196.59;5011625;28;20045;-60
2023/07/19 09:59:11;;;;;;;3.15;2.03;;;;;;;23.10;74.41;101188.56;5007186;28;20412;-59
2023/07/19 10:01:37;;;;;;;4.88;1.90;;;;;;;23.37;76.47;101187.28;5009370;28;20446;-60
2023/07/19 10:04:22;;;;;;;4.93;1.90;;;;;;;23.78;76.18;101189.28;5009518;28;20028;-59
2023/07/19 10:06:48;;;;;;;3.17;1.92;;;;;;;24.00;71.18;101188.84;5008819;28;20048;-61
2023/07/19 10:09:22;;;;;;;4.28;1.70;;;;;;;23.97;69.81;101187.16;5009892;28;20022;-61
2023/07/19 10:11:51;;;;;;;4.15;1.70;;;;;;;23.92;68.04;101191.66;5007989;28;20057;-61
2023/07/19 10:14:25;;;;;;;3.03;1.70;;;;;;;23.88;69.03;101189.97;5008932;28;20156;-62
2023/07/19 10:16:56;;;;;;;5.28;1.95;;;;;;;23.70;69.53;101184.13;5009805;28;20033;-61
2023/07/19 10:19:21;;;;;;;4.95;1.65;;;;;;;23.79;71.61;101192.78;5009353;28;20543;-60
2023/07/19 10:22:07;;;;;;;4.60;1.75;;;;;;;23.91;70.10;101192.56;5009909;28;20061;-60
2023/07/19 10:24:34;;;;;;;3.80;2.00;;;;;;;24.05;70.53;101191.44;5009807;28;20080;-60
2023/07/19 10:27:01;;;;;;;4.47;2.00;;;;;;;24.10;69.39;101190.44;4997461;28;20049;-60
2023/07/19 10:29:37;;;;;;;3.55;1.63;;;;;;;23.94;66.90;101194.28;5006239;28;20040;-61
2023/07/19 10:32:03;;;;;;;6.47;2.05;;;;;;;23.65;67.43;101196.56;4999688;28;20049;-61
2023/07/19 10:34:29;;;;;;;6.10;2.22;;;;;;;23.55;69.44;101197.63;5005953;28;20030;-61
2023/07/19 10:37:01;;;;;;;4.43;1.48;;;;;;;23.43;68.28;101194.28;5006953;28;20028;-61
2023/07/19 10:39:26;;;;;;;2.95;1.30;;;;;;;23.41;69.21;101201.31;5008613;28;20450;-61
2023/07/19 10:41:51;;;;;;;3.97;1.40;;;;;;;23.45;68.49;101200.41;5006283;28;20046;-60
2023/07/19 10:44:18;;;;;;;3.47;0.95;;;;;;;23.64;68.11;101202.72;5006954;28;20030;-60
2023/07/19 10:46:44;;;;;;;2.00;1.33;;;;;;;23.78;67.22;101188.41;5008518;28;20156;-60
2023/07/19 10:49:10;;;;;;;4.22;1.42;;;;;;;23.82;66.32;101190.94;5008031;28;20045;-60
2023/07/19 10:51:36;;;;;;;4.32;1.42;;;;;;;23.80;66.43;101186.59;5007417;28;20030;-60
2023/07/19 10:54:01;;;;;;;2.50;1.10;;;;;;;23.87;66.20;101188.25;5007109;28;20017;-60
2023/07/19 10:56:27;;;;;;;4.55;1.60;;;;;;;23.74;64.57;101188.47;4993995;28;20026;-61
2023/07/19 10:58:57;;;;;;;3.38;1.25;;;;;;;23.76;66.65;101177.84;4997500;28;20638;-61
2023/07/19 11:01:23;;;;;;;3.17;1.10;;;;;;;23.91;69.28;101179.31;4998919;28;20036;-60
2023/07/19 11:03:48;;;;;;;3.50;1.10;;;;;;;24.14;70.38;101188.59;4995589;28;20029;-60
2023/07/19 11:06:14;;;;;;;5.30;1.50;;;;;;;24.26;65.64;101181.34;5004071;28;20429;-60
2023/07/19 11:08:39;;;;;;;2.33;1.10;;;;;;;24.22;64.75;101181.41;4995434;28;20113;-61
2023/07/19 11:11:07;;;;;;;3.88;1.27;;;;;;;24.11;66.39;101186.00;4996380;28;20032;-61
2023/07/19 11:13:32;;;;;;;4.18;1.30;;;;;;;23.92;66.48;101191.66;4997379;28;20042;-60